Time;durP1;ratioP1;P1;durP2;ratioP2;P2;SDS_P1;SDS_P2;PMS_P1;PMS_P2;Temp;Humidity;BMP_temperature;BMP_pressure;BME280_temperature;BME280_humidity;BME280_pressure;Samples;Min_cycle;Max_cycle;Signal;HPM_P1;HPM_P2
2023/05/13 00:01:20;;;;;;;10.32;9.25;;;;;;;13.61;90.93;101933.13;5031415;28;20385;-74
2023/05/13 00:03:47;;;;;;;10.43;9.32;;;;;;;13.60;91.55;101934.06;5030592;28;20039;-74
2023/05/13 00:06:13;;;;;;;11.32;8.32;;;;;;;13.62;90.60;101925.09;5014134;28;20018;-74
2023/05/13 00:08:38;;;;;;;14.80;8.88;;;;;;;13.62;90.37;101925.09;5039173;28;20082;-75
2023/05/13 00:11:08;;;;;;;9.00;8.20;;;;;;;13.64;89.81;101927.63;5050480;28;20044;-75
2023/05/13 00:13:34;;;;;;;9.35;8.38;;;;;;;13.63;89.41;101931.25;5050936;28;20033;-75
2023/05/13 00:16:05;;;;;;;11.70;8.63;;;;;;;13.63;89.06;101921.50;5030204;28;20397;-74
2023/05/13 00:18:31;;;;;;;13.10;8.67;;;;;;;13.69;86.47;101920.22;5031864;28;20097;-74
2023/05/13 00:20:57;;;;;;;8.93;7.97;;;;;;;13.70;87.11;101917.47;5023545;28;20113;-74
2023/05/13 00:23:22;;;;;;;10.35;7.63;;;;;;;13.70;87.31;101922.75;5030669;28;20030;-75
2023/05/13 00:25:47;;;;;;;9.40;7.97;;;;;;;13.68;86.98;101921.19;5036838;28;20036;-75
2023/05/13 00:28:13;;;;;;;13.43;8.30;;;;;;;13.70;86.00;101922.75;5027692;28;20029;-74
2023/05/13 00:30:44;;;;;;;11.65;8.05;;;;;;;13.69;86.03;101920.22;5030851;28;20030;-75
2023/05/13 00:33:10;;;;;;;8.32;7.35;;;;;;;13.66;85.84;101921.28;5030370;28;20029;-74
2023/05/13 00:35:35;;;;;;;8.90;7.80;;;;;;;13.61;86.56;101918.13;5028026;28;20501;-74
2023/05/13 00:38:01;;;;;;;9.90;8.60;;;;;;;13.58;87.61;101918.31;5023203;28;20037;-74
2023/05/13 00:40:26;;;;;;;10.00;7.70;;;;;;;13.55;87.46;101929.09;5026493;28;20052;-74
2023/05/13 00:42:52;;;;;;;10.65;7.50;;;;;;;13.48;88.22;101927.84;5028330;28;20055;-74
2023/05/13 00:45:18;;;;;;;11.07;7.80;;;;;;;13.45;89.84;101922.75;5028035;28;20107;-74
2023/05/13 00:47:44;;;;;;;9.52;7.88;;;;;;;13.37;89.83;101930.38;5028127;28;20064;-74
2023/05/13 00:50:12;;;;;;;9.57;7.60;;;;;;;13.35;88.77;101927.00;5027650;28;20075;-74
2023/05/13 00:52:39;;;;;;;11.40;7.90;;;;;;;13.23;92.49;101930.47;5030797;28;20111;-74
2023/05/13 00:55:05;;;;;;;12.15;8.75;;;;;;;13.18;92.78;101928.97;5022977;28;20423;-74
2023/05/13 00:57:31;;;;;;;8.55;7.65;;;;;;;13.11;93.18;101937.38;5029488;28;20060;-74
2023/05/13 00:59:56;;;;;;;8.18;7.47;;;;;;;13.07;93.13;101934.09;5029381;28;20052;-74
2023/05/13 01:02:50;;;;;;;10.10;7.60;;;;;;;13.07;94.40;101930.63;5027988;28;20100;-74
2023/05/13 01:05:30;;;;;;;9.45;7.95;;;;;;;12.97;93.94;101938.31;5028848;28;20034;-74
2023/05/13 01:08:28;;;;;;;9.27;8.27;;;;;;;12.95;93.77;101934.94;5035713;28;20021;-74
2023/05/13 01:11:03;;;;;;;9.60;7.82;;;;;;;12.89;92.25;101935.34;5027365;28;20374;-74
2023/05/13 01:13:35;;;;;;;9.13;7.57;;;;;;;12.85;90.65;101939.97;5024231;28;20104;-74
2023/05/13 01:16:32;;;;;;;11.65;8.13;;;;;;;12.83;94.96;101930.47;5028941;28;20025;-74
2023/05/13 01:19:17;;;;;;;9.80;8.07;;;;;;;12.80;95.61;101930.66;5030249;28;20786;-74
2023/05/13 01:21:51;;;;;;;9.77;8.77;;;;;;;12.70;96.87;101934.84;5034646;28;20026;-75
2023/05/13 01:24:16;;;;;;;9.55;8.38;;;;;;;12.61;96.55;101927.53;5031939;28;20393;-74
2023/05/13 01:26:41;;;;;;;10.88;8.23;;;;;;;12.57;95.37;101926.03;5047448;28;20021;-75
2023/05/13 01:29:07;;;;;;;11.52;8.50;;;;;;;12.50;96.79;101923.81;5050249;28;20029;-74
2023/05/13 01:31:32;;;;;;;8.88;7.40;;;;;;;12.44;96.63;101924.19;5027203;28;20084;-74
2023/05/13 01:33:58;;;;;;;12.75;9.13;;;;;;;12.42;97.06;101930.53;5024988;28;20029;-75
2023/05/13 01:36:24;;;;;;;11.85;9.73;;;;;;;12.34;96.69;101932.78;5031956;28;20049;-74
2023/05/13 01:38:50;;;;;;;11.50;9.20;;;;;;;12.31;96.41;101931.19;5033116;28;20064;-74
2023/05/13 01:41:16;;;;;;;9.60;8.52;;;;;;;12.30;95.38;101932.13;5032932;28;20026;-75
2023/05/13 01:43:43;;;;;;;9.68;8.55;;;;;;;12.27;94.24;101932.34;5034398;28;20056;-74
2023/05/13 01:46:12;;;;;;;11.68;8.98;;;;;;;12.23;96.65;101926.41;5024948;28;20536;-74
2023/05/13 01:48:37;;;;;;;11.00;9.38;;;;;;;12.20;98.04;101931.03;5033053;28;20453;-74
2023/05/13 01:51:04;;;;;;;10.13;9.10;;;;;;;12.16;97.60;101935.66;5032146;28;20044;-74
2023/05/13 01:53:30;;;;;;;13.55;9.30;;;;;;;12.12;97.87;101930.69;5033709;28;20033;-74
2023/05/13 01:55:55;;;;;;;10.60;9.50;;;;;;;12.04;95.92;101927.69;5034113;28;20030;-74
2023/05/13 01:58:22;;;;;;;11.15;9.45;;;;;;;12.01;96.88;101941.03;5033540;28;20021;-74
2023/05/13 02:00:47;;;;;;;10.68;9.65;;;;;;;12.01;96.96;101935.75;5031203;28;20028;-74
2023/05/13 02:03:13;;;;;;;12.20;9.35;;;;;;;11.97;98.02;101936.88;5032062;28;20467;-74
2023/05/13 02:05:39;;;;;;;12.27;9.68;;;;;;;11.91;97.57;101935.50;5027888;28;20049;-74
2023/05/13 02:08:05;;;;;;;10.57;9.60;;;;;;;11.89;97.97;101932.94;5033052;28;20108;-74
2023/05/13 02:10:30;;;;;;;10.68;9.68;;;;;;;11.86;98.92;101938.41;5033774;28;20631;-74
2023/05/13 02:12:57;;;;;;;10.45;9.45;;;;;;;11.84;98.40;101936.81;5033240;28;20117;-74
2023/05/13 02:15:23;;;;;;;10.25;9.30;;;;;;;11.79;98.20;101937.09;5030965;28;20037;-74
2023/05/13 02:17:49;;;;;;;10.48;9.48;;;;;;;11.77;97.42;101931.03;5030942;28;20869;-73
2023/05/13 02:20:14;;;;;;;12.50;10.40;;;;;;;11.74;99.54;101935.66;5030775;28;20025;-74
2023/05/13 02:22:41;;;;;;;12.05;10.82;;;;;;;11.69;99.80;101933.31;5028411;28;20033;-74
2023/05/13 02:25:07;;;;;;;12.07;10.18;;;;;;;11.63;98.84;101936.31;5031616;28;20035;-74
2023/05/13 02:27:33;;;;;;;12.30;10.32;;;;;;;11.58;99.11;101933.94;5052334;28;20543;-74
2023/05/13 02:29:58;;;;;;;13.43;10.75;;;;;;;11.57;99.15;101942.78;5051204;28;20370;-74
2023/05/13 02:32:23;;;;;;;16.58;10.10;;;;;;;11.53;98.91;101938.66;5050909;28;20421;-73
2023/05/13 02:34:48;;;;;;;13.63;10.38;;;;;;;11.53;99.49;101940.44;5051884;28;20065;-74
2023/05/13 02:37:14;;;;;;;14.23;11.13;;;;;;;11.48;99.00;101939.88;5045693;28;20101;-74
2023/05/13 02:39:39;;;;;;;11.70;10.50;;;;;;;11.49;99.63;101938.94;5012778;28;20057;-74
2023/05/13 02:42:04;;;;;;;12.70;10.20;;;;;;;11.43;99.87;101934.03;5021319;28;20049;-74
2023/05/13 02:44:30;;;;;;;11.20;10.15;;;;;;;11.35;99.55;101939.75;5012368;28;20052;-74
2023/05/13 02:46:55;;;;;;;12.98;10.80;;;;;;;11.33;99.45;101938.16;5031300;28;20437;-74
2023/05/13 02:49:20;;;;;;;10.88;9.85;;;;;;;11.29;100.00;101938.34;5031564;28;20033;-74
2023/05/13 02:51:48;;;;;;;11.90;10.75;;;;;;;11.27;100.00;101937.59;5030498;28;20405;-74
2023/05/13 02:54:13;;;;;;;11.27;10.27;;;;;;;11.20;100.00;101933.59;5031910;28;20389;-74
2023/05/13 02:56:38;;;;;;;16.00;10.85;;;;;;;11.17;99.95;101931.16;5031742;28;20021;-74
2023/05/13 02:59:04;;;;;;;11.98;10.70;;;;;;;11.15;100.00;101927.75;5031190;28;20104;-74
2023/05/13 03:01:29;;;;;;;11.63;10.63;;;;;;;11.14;100.00;101927.84;5024333;28;20485;-74
2023/05/13 03:03:55;;;;;;;13.50;10.77;;;;;;;11.10;100.00;101929.81;5012954;28;20090;-74
2023/05/13 03:06:20;;;;;;;13.55;10.50;;;;;;;11.09;100.00;101929.91;5030774;28;20025;-74
2023/05/13 03:08:47;;;;;;;11.77;10.38;;;;;;;11.04;100.00;101930.19;5047176;28;20163;-74
2023/05/13 03:11:13;;;;;;;11.80;10.60;;;;;;;11.03;100.00;101922.38;5050950;28;20485;-74
2023/05/13 03:13:38;;;;;;;13.13;10.50;;;;;;;10.94;100.00;101926.41;5030542;28;20107;-74
2023/05/13 03:16:04;;;;;;;14.68;11.05;;;;;;;10.95;100.00;101939.47;5027105;28;20489;-75
2023/05/13 03:18:31;;;;;;;15.20;11.48;;;;;;;10.91;100.00;101931.84;5028296;28;20033;-74
2023/05/13 03:20:56;;;;;;;12.10;10.82;;;;;;;10.82;100.00;101924.50;5031641;28;20048;-74
2023/05/13 03:23:22;;;;;;;13.48;11.52;;;;;;;10.81;100.00;101928.06;5030805;28;20489;-74
2023/05/13 03:25:47;;;;;;;13.07;10.70;;;;;;;10.82;100.00;101935.00;5037012;28;20027;-75
2023/05/13 03:28:13;;;;;;;12.30;10.98;;;;;;;10.77;100.00;101939.66;5044184;28;20105;-74
2023/05/13 03:30:38;;;;;;;13.43;11.15;;;;;;;10.76;100.00;101938.81;5030434;28;20037;-74
2023/05/13 03:33:03;;;;;;;13.30;11.43;;;;;;;10.72;100.00;101936.47;5028923;28;20033;-75
2023/05/13 03:35:31;;;;;;;18.60;11.23;;;;;;;10.67;100.00;101934.94;5011568;28;20018;-74
2023/05/13 03:37:59;;;;;;;13.23;10.90;;;;;;;10.62;100.00;101934.34;5028586;28;20068;-75
2023/05/13 03:40:24;;;;;;;13.55;11.27;;;;;;;10.64;100.00;101940.38;5028478;28;20033;-74
2023/05/13 03:42:49;;;;;;;12.20;10.88;;;;;;;10.62;100.00;101936.13;5030234;28;20056;-74
2023/05/13 03:45:16;;;;;;;12.70;11.52;;;;;;;10.64;100.00;101943.00;5029726;28;20068;-75
2023/05/13 03:47:42;;;;;;;13.98;11.77;;;;;;;10.62;100.00;101936.97;5029760;28;20026;-74
2023/05/13 03:50:08;;;;;;;12.82;11.48;;;;;;;10.61;100.00;101945.81;5025564;28;20041;-74
2023/05/13 03:52:34;;;;;;;15.70;11.07;;;;;;;10.60;100.00;101953.81;5010902;28;20030;-74
2023/05/13 03:55:08;;;;;;;14.00;11.32;;;;;;;10.58;100.00;101956.50;5016248;28;20052;-74
2023/05/13 03:57:34;;;;;;;12.45;11.23;;;;;;;10.52;100.00;101951.59;5029855;28;20029;-74
2023/05/13 04:00:08;;;;;;;13.48;11.07;;;;;;;10.49;100.00;101949.16;5027169;28;20032;-74
2023/05/13 04:02:33;;;;;;;14.10;11.32;;;;;;;10.42;100.00;101944.31;5029766;28;20120;-74
2023/05/13 04:04:58;;;;;;;14.52;11.20;;;;;;;10.41;100.00;101947.88;5031126;28;20120;-74
2023/05/13 04:07:24;;;;;;;12.93;11.55;;;;;;;10.40;100.00;101951.41;5023448;28;20029;-75
2023/05/13 04:09:49;;;;;;;14.65;10.68;;;;;;;10.35;100.00;101960.41;5030320;28;20021;-75
2023/05/13 04:12:16;;;;;;;12.60;11.38;;;;;;;10.38;100.00;101956.75;5029994;28;20113;-75
2023/05/13 04:14:42;;;;;;;12.40;11.10;;;;;;;10.34;100.00;101948.19;5030253;28;20032;-75
2023/05/13 04:17:07;;;;;;;13.15;11.38;;;;;;;10.35;100.00;101949.03;5028914;28;20025;-75
2023/05/13 04:19:33;;;;;;;16.70;11.38;;;;;;;10.33;100.00;101951.75;5029392;28;20025;-75
2023/05/13 04:21:58;;;;;;;12.63;11.32;;;;;;;10.35;100.00;101946.41;5030203;28;20025;-75
2023/05/13 04:24:23;;;;;;;14.85;11.48;;;;;;;10.35;100.00;101954.31;5023037;28;20026;-75
2023/05/13 04:26:49;;;;;;;12.88;11.50;;;;;;;10.34;100.00;101956.09;5031599;28;20033;-75
2023/05/13 04:29:16;;;;;;;13.57;11.57;;;;;;;10.33;100.00;101956.19;5027309;28;20029;-75
2023/05/13 04:31:42;;;;;;;15.88;11.88;;;;;;;10.38;100.00;101958.53;5030374;28;20421;-75
2023/05/13 04:34:08;;;;;;;12.70;11.38;;;;;;;10.43;100.00;101956.53;5028993;28;20104;-75
2023/05/13 04:36:33;;;;;;;14.98;11.10;;;;;;;10.47;100.00;101963.31;5030638;28;20372;-75
2023/05/13 04:39:05;;;;;;;18.98;11.25;;;;;;;10.52;99.63;101956.88;5029221;28;20060;-75
2023/05/13 04:41:31;;;;;;;19.48;11.38;;;;;;;10.56;99.87;101955.75;5020755;28;20034;-75
2023/05/13 04:43:57;;;;;;;13.55;10.82;;;;;;;10.59;99.49;101967.91;5010541;28;20049;-75
2023/05/13 04:46:24;;;;;;;12.85;11.50;;;;;;;10.64;99.07;101971.09;5009598;28;20034;-75
2023/05/13 04:48:50;;;;;;;13.95;11.48;;;;;;;10.66;99.81;101967.47;5025122;28;20124;-75
2023/05/13 04:51:15;;;;;;;15.02;10.60;;;;;;;10.72;98.91;101973.31;5025992;28;20116;-75
2023/05/13 04:53:40;;;;;;;13.90;10.95;;;;;;;10.75;98.31;101968.72;5029633;28;20035;-75
2023/05/13 04:56:06;;;;;;;12.57;11.00;;;;;;;10.77;98.79;101968.63;5026732;28;20038;-75
2023/05/13 04:58:31;;;;;;;14.95;11.32;;;;;;;10.78;100.00;101967.69;5010576;28;20064;-75
2023/05/13 05:00:57;;;;;;;12.45;10.98;;;;;;;10.86;98.44;101970.75;5010484;28;20018;-74
2023/05/13 05:03:23;;;;;;;11.82;10.45;;;;;;;10.92;98.42;101978.31;5009009;28;20026;-75
2023/05/13 05:05:49;;;;;;;11.82;10.63;;;;;;;10.98;97.95;101980.59;5010403;28;20471;-75
2023/05/13 05:08:15;;;;;;;15.85;11.38;;;;;;;11.00;98.21;101978.72;5033717;28;20063;-75
2023/05/13 05:10:40;;;;;;;12.63;11.07;;;;;;;11.07;98.47;101981.84;5049296;28;20021;-75
2023/05/13 05:13:06;;;;;;;15.55;11.75;;;;;;;11.09;98.10;101978.16;5041367;28;20497;-75
2023/05/13 05:15:31;;;;;;;15.20;11.15;;;;;;;11.15;97.70;101977.81;5026660;28;20378;-75
2023/05/13 05:17:56;;;;;;;12.55;11.25;;;;;;;11.18;97.22;101988.16;5028295;28;20033;-75
2023/05/13 05:20:23;;;;;;;15.05;11.73;;;;;;;11.25;95.80;101988.69;5028205;28;20030;-75
2023/05/13 05:22:49;;;;;;;11.98;10.77;;;;;;;11.31;96.25;101990.94;5030093;28;20022;-75
2023/05/13 05:25:15;;;;;;;12.68;11.38;;;;;;;11.39;97.01;101990.50;5027707;28;20036;-75
2023/05/13 05:27:40;;;;;;;12.88;11.07;;;;;;;11.45;95.93;101984.84;5049982;28;20404;-74
2023/05/13 05:30:08;;;;;;;13.88;11.70;;;;;;;11.51;96.23;101995.88;5041752;28;20029;-75
2023/05/13 05:32:33;;;;;;;16.30;11.48;;;;;;;11.57;95.73;101987.59;5024165;28;20056;-75
2023/05/13 05:35:01;;;;;;;15.70;11.60;;;;;;;11.66;95.61;101988.88;5029861;28;20115;-75
2023/05/13 05:37:27;;;;;;;14.32;11.50;;;;;;;11.74;96.22;101991.88;5027432;28;20052;-75
2023/05/13 05:39:52;;;;;;;14.68;12.02;;;;;;;11.78;94.94;101998.69;5028470;28;20049;-75
2023/05/13 05:42:17;;;;;;;18.30;11.45;;;;;;;11.83;95.32;101993.97;5027363;28;20085;-75
2023/05/13 05:44:42;;;;;;;12.70;11.43;;;;;;;11.88;94.55;101998.97;5026418;28;20137;-75
2023/05/13 05:47:08;;;;;;;18.92;11.77;;;;;;;11.93;94.72;102000.38;5028923;28;20021;-75
2023/05/13 05:49:33;;;;;;;17.38;13.18;;;;;;;11.99;94.81;102003.59;5020934;28;20431;-75
2023/05/13 05:51:58;;;;;;;15.90;11.95;;;;;;;12.02;94.58;102004.28;5027113;28;20030;-75
2023/05/13 05:54:24;;;;;;;13.95;11.90;;;;;;;12.04;93.69;102004.19;5022926;28;20056;-75
2023/05/13 05:56:50;;;;;;;14.85;12.23;;;;;;;12.04;93.21;102012.09;5025312;28;20026;-75
2023/05/13 05:59:15;;;;;;;15.35;11.77;;;;;;;12.02;92.92;102013.97;5028013;28;20147;-75
2023/05/13 06:01:40;;;;;;;13.13;11.55;;;;;;;12.06;92.95;102007.56;5029511;28;20578;-75
2023/05/13 06:04:07;;;;;;;16.58;11.90;;;;;;;12.10;92.52;102011.72;5026618;28;20041;-74
2023/05/13 06:06:33;;;;;;;12.68;11.43;;;;;;;12.12;92.37;102001.91;5030162;28;20031;-75
2023/05/13 06:09:04;;;;;;;14.63;11.55;;;;;;;12.18;92.57;102004.16;5046224;28;20028;-75
2023/05/13 06:11:30;;;;;;;13.57;12.25;;;;;;;12.22;92.48;101997.75;5019537;28;20041;-75
2023/05/13 06:13:56;;;;;;;13.43;12.02;;;;;;;12.30;93.06;102003.38;5029994;28;20029;-75
2023/05/13 06:16:22;;;;;;;14.85;13.32;;;;;;;12.29;91.34;102009.63;5027721;28;20060;-75
2023/05/13 06:18:47;;;;;;;14.25;12.77;;;;;;;12.35;91.37;102016.28;5013580;28;20049;-74
2023/05/13 06:21:13;;;;;;;36.38;14.85;;;;;;;12.35;92.33;102017.13;5031390;28;20029;-75
2023/05/13 06:23:39;;;;;;;16.95;12.93;;;;;;;12.34;92.09;102023.38;5031532;28;20025;-75
2023/05/13 06:26:06;;;;;;;14.48;12.10;;;;;;;12.31;92.28;102022.72;5038092;28;20055;-75
2023/05/13 06:28:31;;;;;;;16.02;13.00;;;;;;;12.33;92.71;102021.66;5020436;28;20538;-75
2023/05/13 06:30:57;;;;;;;15.55;12.95;;;;;;;12.36;92.84;102016.19;5029504;28;20125;-75
2023/05/13 06:33:23;;;;;;;13.80;12.40;;;;;;;12.46;92.97;102022.63;5029981;28;20040;-75
2023/05/13 06:35:49;;;;;;;15.48;13.10;;;;;;;12.54;92.29;102012.41;5030116;28;20080;-75
2023/05/13 06:38:16;;;;;;;14.23;12.82;;;;;;;12.67;93.19;102023.03;5027090;28;20021;-75
2023/05/13 06:40:43;;;;;;;15.82;12.77;;;;;;;12.76;92.19;102024.22;5029573;28;20025;-75
2023/05/13 06:43:08;;;;;;;15.95;12.77;;;;;;;12.79;90.41;102026.66;5027717;28;20524;-74
2023/05/13 06:45:35;;;;;;;15.30;12.70;;;;;;;12.81;91.38;102027.44;5030416;28;20120;-74
2023/05/13 06:48:01;;;;;;;14.68;13.00;;;;;;;12.81;91.07;102027.44;5029841;28;20030;-75
2023/05/13 06:50:26;;;;;;;13.98;12.68;;;;;;;12.83;90.67;102030.84;5023962;28;20040;-75
2023/05/13 06:52:52;;;;;;;16.35;13.35;;;;;;;12.98;91.44;102040.41;5012409;28;20026;-75
2023/05/13 06:55:17;;;;;;;16.13;12.52;;;;;;;13.10;91.88;102034.31;5030509;28;20032;-75
2023/05/13 06:57:46;;;;;;;14.75;13.25;;;;;;;13.32;91.51;102031.16;5032418;28;20502;-75
2023/05/13 07:00:13;;;;;;;14.15;12.38;;;;;;;13.40;90.12;102031.47;5031630;28;20067;-75
2023/05/13 07:02:38;;;;;;;13.57;12.20;;;;;;;13.50;88.81;102029.06;5031121;28;20064;-75
2023/05/13 07:05:04;;;;;;;13.70;12.20;;;;;;;13.55;87.47;102024.28;5019889;28;20677;-75
2023/05/13 07:07:32;;;;;;;13.80;12.45;;;;;;;13.61;88.07;102034.47;5022430;28;20481;-75
2023/05/13 07:09:57;;;;;;;15.13;12.73;;;;;;;13.82;87.95;102031.31;5042602;28;20022;-75
2023/05/13 07:12:22;;;;;;;16.05;13.10;;;;;;;14.07;86.37;102032.16;5030595;28;20037;-75
2023/05/13 07:14:48;;;;;;;17.15;13.15;;;;;;;14.32;86.70;102025.97;5031969;28;20013;-75
2023/05/13 07:17:13;;;;;;;14.80;12.75;;;;;;;14.30;86.26;102025.25;5029903;28;20394;-75
2023/05/13 07:19:39;;;;;;;13.75;11.80;;;;;;;14.34;84.43;102018.78;5030306;28;20025;-75
2023/05/13 07:22:04;;;;;;;14.23;12.80;;;;;;;14.22;84.90;102024.09;5030559;28;20601;-75
2023/05/13 07:24:29;;;;;;;14.50;11.45;;;;;;;14.19;85.15;102035.75;5027096;28;20508;-75
2023/05/13 07:26:54;;;;;;;14.43;12.02;;;;;;;14.12;84.72;102031.84;5036609;28;20492;-75
2023/05/13 07:29:20;;;;;;;13.15;11.85;;;;;;;14.14;85.12;102027.28;5030685;28;20486;-75
2023/05/13 07:31:45;;;;;;;14.65;12.45;;;;;;;14.40;85.48;102020.97;5030669;28;20140;-76
2023/05/13 07:34:10;;;;;;;14.60;12.38;;;;;;;14.53;84.44;102013.06;5029499;28;20021;-76
2023/05/13 07:36:36;;;;;;;13.70;12.30;;;;;;;14.65;83.46;102016.63;5031403;28;20021;-76
2023/05/13 07:39:02;;;;;;;16.83;12.70;;;;;;;14.90;83.70;102016.53;5018467;28;20036;-77
2023/05/13 07:41:27;;;;;;;16.02;11.95;;;;;;;15.39;80.85;102020.81;5010005;28;20132;-76
2023/05/13 07:43:52;;;;;;;15.70;11.25;;;;;;;15.94;79.35;102024.59;5026260;28;20054;-76
2023/05/13 07:46:18;;;;;;;15.73;11.40;;;;;;;16.36;78.73;102012.38;4998118;28;20521;-76
2023/05/13 07:48:43;;;;;;;13.35;10.63;;;;;;;16.74;75.28;102019.97;4992007;28;20030;-76
2023/05/13 07:51:10;;;;;;;13.35;10.45;;;;;;;16.90;72.79;102024.91;5005719;28;20494;-76
2023/05/13 07:53:35;;;;;;;13.80;10.60;;;;;;;16.98;73.38;102021.59;4991722;28;20026;-76
2023/05/13 07:56:01;;;;;;;16.08;10.65;;;;;;;17.09;70.80;102021.56;4991323;28;20030;-76
2023/05/13 07:58:27;;;;;;;13.10;10.45;;;;;;;17.39;69.71;102018.16;4985790;28;20415;-76
2023/05/13 08:00:53;;;;;;;13.88;9.80;;;;;;;17.68;69.89;102023.72;4970950;28;20054;-76
2023/05/13 08:03:18;;;;;;;13.02;9.73;;;;;;;17.94;68.29;102021.47;4971298;28;20060;-76
2023/05/13 08:05:48;;;;;;;11.40;9.15;;;;;;;18.17;67.41;102023.84;4983527;28;20027;-76
2023/05/13 08:08:14;;;;;;;16.10;9.40;;;;;;;18.41;67.15;102017.31;4982540;28;20089;-76
2023/05/13 08:10:39;;;;;;;10.52;8.70;;;;;;;18.77;66.14;102016.72;4991473;28;20026;-76
2023/05/13 08:13:05;;;;;;;14.90;8.82;;;;;;;18.96;64.10;102015.94;4989934;28;20037;-76
2023/05/13 08:15:31;;;;;;;10.82;8.90;;;;;;;18.76;64.70;102014.19;4991417;28;20049;-76
2023/05/13 08:17:56;;;;;;;12.57;8.45;;;;;;;18.46;63.10;102017.78;4991549;28;20030;-76
2023/05/13 08:20:28;;;;;;;13.15;9.13;;;;;;;18.43;63.32;102018.06;4990413;28;20100;-76
2023/05/13 08:22:53;;;;;;;10.37;8.40;;;;;;;18.72;63.50;102018.97;4991679;28;20102;-76
2023/05/13 08:25:18;;;;;;;10.40;8.60;;;;;;;18.98;61.47;102016.63;4990650;28;20130;-76
2023/05/13 08:27:44;;;;;;;11.55;9.07;;;;;;;19.16;61.94;102022.09;4990811;28;20054;-76
2023/05/13 08:30:09;;;;;;;10.77;8.60;;;;;;;19.28;60.74;102026.31;4990585;28;20045;-76
2023/05/13 08:32:35;;;;;;;14.45;8.85;;;;;;;19.37;60.58;102022.81;4990990;28;20034;-76
2023/05/13 08:35:00;;;;;;;13.50;9.35;;;;;;;19.54;59.78;102021.25;4989984;28;20618;-76
2023/05/13 08:37:26;;;;;;;11.70;9.70;;;;;;;19.46;58.93;102018.44;4990750;28;20042;-76
2023/05/13 08:39:51;;;;;;;10.88;8.20;;;;;;;19.73;59.00;102016.88;5005942;28;20023;-76
2023/05/13 08:42:20;;;;;;;12.50;8.73;;;;;;;19.92;58.67;102020.31;5003877;28;20050;-76
2023/05/13 08:44:47;;;;;;;13.85;8.77;;;;;;;19.94;58.20;102018.34;4989540;28;20026;-76
2023/05/13 08:47:49;;;;;;;11.90;8.70;;;;;;;20.28;58.45;102015.97;4988986;28;20030;-76
2023/05/13 08:50:15;;;;;;;9.77;8.52;;;;;;;20.50;55.92;102016.59;4989804;28;20022;-76
2023/05/13 08:52:42;;;;;;;12.80;8.82;;;;;;;20.90;57.09;102016.19;4990837;28;20030;-76
2023/05/13 08:55:08;;;;;;;15.27;8.85;;;;;;;20.80;54.77;102016.25;4988300;28;20018;-76
2023/05/13 08:57:33;;;;;;;14.48;8.82;;;;;;;20.87;55.84;102017.34;4990740;28;20439;-76
2023/05/13 08:59:58;;;;;;;9.95;8.23;;;;;;;21.05;54.24;102019.16;4989601;28;20022;-76
2023/05/13 09:02:24;;;;;;;9.93;8.35;;;;;;;21.11;53.23;102019.41;4988239;28;20026;-76
2023/05/13 09:04:53;;;;;;;9.60;8.13;;;;;;;21.33;52.30;102011.94;4985613;28;20084;-76
2023/05/13 09:07:19;;;;;;;9.02;7.97;;;;;;;21.43;51.32;102012.66;4989033;28;20014;-76
2023/05/13 09:09:46;;;;;;;9.07;8.23;;;;;;;21.77;53.59;102010.91;4988752;28;20026;-77
2023/05/13 09:12:32;;;;;;;11.90;8.45;;;;;;;22.14;51.62;102009.78;5005202;28;20081;-77
2023/05/13 09:14:57;;;;;;;12.95;8.10;;;;;;;22.21;50.48;102010.81;4990721;28;20026;-77
2023/05/13 09:17:22;;;;;;;10.43;8.20;;;;;;;22.19;49.96;102005.63;4989348;28;20475;-77
2023/05/13 09:19:48;;;;;;;12.63;8.20;;;;;;;22.12;51.08;102009.97;4989371;28;20471;-77
2023/05/13 09:22:21;;;;;;;11.02;7.70;;;;;;;22.14;49.97;102007.13;4999855;28;20414;-76
2023/05/13 09:24:53;;;;;;;13.10;8.57;;;;;;;22.27;50.07;102006.66;4989804;28;20403;-76
2023/05/13 09:27:36;;;;;;;11.55;8.00;;;;;;;22.43;51.17;102002.22;4989814;28;20029;-77
2023/05/13 09:30:05;;;;;;;11.27;7.95;;;;;;;22.54;50.09;101994.84;4989875;28;20033;-76
2023/05/13 09:32:30;;;;;;;9.95;7.72;;;;;;;22.66;48.94;101991.69;4990210;28;20030;-77
2023/05/13 09:34:56;;;;;;;10.88;7.80;;;;;;;22.85;49.88;101987.91;4990409;28;20257;-77
2023/05/13 09:37:22;;;;;;;10.43;9.32;;;;;;;22.80;49.44;101992.88;4989236;28;20061;-76
2023/05/13 09:39:51;;;;;;;9.23;8.30;;;;;;;23.04;49.40;101990.28;4987842;28;20022;-77
2023/05/13 09:42:18;;;;;;;8.82;7.90;;;;;;;23.16;48.98;101987.25;4992154;28;20676;-77
2023/05/13 09:44:47;;;;;;;11.20;8.75;;;;;;;23.11;49.00;101991.28;4973903;28;20022;-76
2023/05/13 09:47:15;;;;;;;12.88;8.95;;;;;;;23.17;47.60;101994.28;4972390;28;20395;-76
2023/05/13 09:49:42;;;;;;;10.95;8.02;;;;;;;23.28;46.82;101991.28;4974442;28;20037;-76
2023/05/13 09:52:11;;;;;;;10.73;7.53;;;;;;;24.03;44.48;101983.78;4971864;28;20110;-76
2023/05/13 09:54:37;;;;;;;8.48;7.60;;;;;;;25.40;42.70;101981.22;4974194;28;20031;-76
2023/05/13 09:57:07;;;;;;;12.20;8.15;;;;;;;26.75;40.47;101971.81;4974145;28;20023;-76
2023/05/13 09:59:33;;;;;;;12.07;7.57;;;;;;;28.49;37.63;101970.13;4987430;28;20031;-76
2023/05/13 10:02:04;;;;;;;12.20;7.43;;;;;;;29.22;34.96;101963.78;4994446;28;20471;-76
2023/05/13 10:04:30;;;;;;;10.77;7.10;;;;;;;29.92;34.08;101962.19;4993755;28;20026;-76
2023/05/13 10:06:58;;;;;;;11.13;6.38;;;;;;;30.59;32.28;101951.88;4993602;28;20026;-76
2023/05/13 10:09:26;;;;;;;8.82;7.32;;;;;;;30.53;32.70;101953.59;4991602;28;20030;-76
2023/05/13 10:11:52;;;;;;;9.23;7.32;;;;;;;30.15;33.43;101956.28;4993480;28;20399;-76
2023/05/13 10:14:18;;;;;;;10.73;6.57;;;;;;;29.75;33.31;101955.59;5008315;28;20026;-77
2023/05/13 10:16:46;;;;;;;8.40;6.60;;;;;;;28.69;34.31;101958.28;4988452;28;20478;-77
2023/05/13 10:19:14;;;;;;;8.02;6.55;;;;;;;27.62;37.17;101958.06;4992689;28;20022;-76
2023/05/13 10:21:39;;;;;;;9.90;6.45;;;;;;;26.80;37.25;101952.34;4993869;28;20033;-76
2023/05/13 10:24:07;;;;;;;12.93;6.55;;;;;;;25.98;37.93;101952.63;4992248;28;20026;-76
2023/05/13 10:26:33;;;;;;;10.02;6.28;;;;;;;25.35;38.74;101951.31;4992798;28;20492;-77
2023/05/13 10:29:05;;;;;;;9.00;6.97;;;;;;;25.07;41.46;101959.13;4993873;28;20037;-76
2023/05/13 10:31:30;;;;;;;8.60;7.00;;;;;;;24.62;42.36;101949.19;4993186;28;20117;-76
2023/05/13 10:33:56;;;;;;;12.02;7.35;;;;;;;24.37;44.59;101951.19;4987761;28;20109;-76
2023/05/13 10:36:49;;;;;;;8.98;7.82;;;;;;;24.17;46.53;101950.75;4991222;28;20072;-76
2023/05/13 10:39:26;;;;;;;13.30;7.68;;;;;;;24.28;46.64;101947.69;4992211;28;20028;-76
2023/05/13 10:42:18;;;;;;;11.20;7.00;;;;;;;24.21;45.08;101954.78;4992551;28;20038;-76
2023/05/13 10:44:43;;;;;;;11.50;7.35;;;;;;;23.88;42.20;101946.00;4992202;28;20053;-76
2023/05/13 10:47:10;;;;;;;10.48;6.88;;;;;;;23.85;43.78;101950.88;4991595;28;20130;-76
2023/05/13 10:49:40;;;;;;;9.70;6.55;;;;;;;23.60;44.06;101953.63;4988737;28;20376;-76
2023/05/13 10:52:07;;;;;;;10.77;6.05;;;;;;;23.55;44.84;101956.00;4989594;28;20153;-77
2023/05/13 10:54:40;;;;;;;8.48;5.75;;;;;;;23.57;44.33;101945.91;4991935;28;20108;-76
2023/05/13 10:57:07;;;;;;;11.77;6.88;;;;;;;23.63;44.44;101942.56;4986771;28;20029;-76
2023/05/13 10:59:36;;;;;;;8.38;6.15;;;;;;;23.57;44.36;101951.28;4993313;28;20050;-76
2023/05/13 11:02:19;;;;;;;9.38;5.45;;;;;;;23.89;43.51;101941.47;4990990;28;20030;-77
2023/05/13 11:05:20;;;;;;;7.82;4.63;;;;;;;24.13;43.93;101949.44;4993303;28;20034;-77
2023/05/13 11:07:55;;;;;;;6.40;4.50;;;;;;;24.27;42.83;101929.00;5012524;28;20510;-75
2023/05/13 11:10:26;;;;;;;6.10;4.50;;;;;;;24.48;41.68;101939.19;5006738;28;20487;-77
2023/05/13 11:13:13;;;;;;;6.10;4.13;;;;;;;24.68;42.75;101940.38;4988014;28;20030;-76
2023/05/13 11:15:54;;;;;;;9.15;4.47;;;;;;;24.35;38.92;101932.53;4972775;28;20023;-76